Terminal Aerodrome Forecast
Issued by NWS Cleveland, OH

Home | Current Version | Previous Version | Text Only | Print | Product List | Glossary On
Versions: 1 2 3 4 5 6 7 8 9 10 11 12
000
FTUS41 KCLE 231746
TAFMFD
TAF
KMFD 231746Z 2318/2418 15015KT 6SM -RA BKN018 OVC040 WS020/15050KT
      TEMPO 2318/2322 15015G25KT 3SM RA BKN008
     FM232300 18015G25KT P6SM -SHRA OVC015
     FM240300 23018G28KT P6SM -SHRA OVC015
     FM240600 23012G20KT P6SM OVC025
     FM241100 20011KT P6SM VCSH OVC015
     FM241500 21015G25KT P6SM VCSH BKN030=

USA.gov is the U.S. government's official web portal to all federal, state and local government web resources and services.